sensor_id;sensor_type;location;lat;lon;timestamp;pressure;altitude;pressure_sealevel;temperature;humidity
17060;BME280;8646;49.716;9.266;2023-04-07T00:01:12;100380.03;;;8.97;78.52
17060;BME280;8646;49.716;9.266;2023-04-07T00:04:15;100375.94;;;8.86;78.33
17060;BME280;8646;49.716;9.266;2023-04-07T00:07:20;100372.50;;;9.07;80.30
17060;BME280;8646;49.716;9.266;2023-04-07T00:10:23;100375.63;;;8.95;81.82
17060;BME280;8646;49.716;9.266;2023-04-07T00:13:26;100373.97;;;8.91;83.02
17060;BME280;8646;49.716;9.266;2023-04-07T00:16:30;100377.13;;;8.77;84.05
17060;BME280;8646;49.716;9.266;2023-04-07T00:19:33;100377.13;;;8.77;84.95
17060;BME280;8646;49.716;9.266;2023-04-07T00:22:37;100374.91;;;8.63;85.60
17060;BME280;8646;49.716;9.266;2023-04-07T00:25:40;100367.19;;;8.53;84.46
17060;BME280;8646;49.716;9.266;2023-04-07T00:28:43;100363.59;;;8.52;84.19
17060;BME280;8646;49.716;9.266;2023-04-07T00:31:45;100361.84;;;8.51;83.27
17060;BME280;8646;49.716;9.266;2023-04-07T00:34:48;100351.16;;;8.74;84.88
17060;BME280;8646;49.716;9.266;2023-04-07T00:37:52;100349.13;;;8.55;85.67
17060;BME280;8646;49.716;9.266;2023-04-07T00:40:56;100343.16;;;8.45;85.19
17060;BME280;8646;49.716;9.266;2023-04-07T00:43:59;100351.00;;;8.53;85.10
17060;BME280;8646;49.716;9.266;2023-04-07T00:47:02;100337.47;;;8.54;85.45
17060;BME280;8646;49.716;9.266;2023-04-07T00:50:06;100333.75;;;8.58;84.88
17060;BME280;8646;49.716;9.266;2023-04-07T00:53:10;100330.00;;;8.62;85.78
17060;BME280;8646;49.716;9.266;2023-04-07T00:56:13;100311.94;;;8.38;85.31
17060;BME280;8646;49.716;9.266;2023-04-07T00:59:16;100322.69;;;8.39;85.41
17060;BME280;8646;49.716;9.266;2023-04-07T01:02:22;100319.81;;;8.44;85.19
17060;BME280;8646;49.716;9.266;2023-04-07T01:05:37;100318.63;;;8.53;85.02
17060;BME280;8646;49.716;9.266;2023-04-07T01:08:53;100309.88;;;8.46;84.48
17060;BME280;8646;49.716;9.266;2023-04-07T01:12:04;100299.91;;;8.48;84.12
17060;BME280;8646;49.716;9.266;2023-04-07T01:15:09;100293.47;;;8.52;83.69
17060;BME280;8646;49.716;9.266;2023-04-07T01:18:14;100302.91;;;8.65;85.09
17060;BME280;8646;49.716;9.266;2023-04-07T01:21:19;100303.47;;;8.50;84.66
17060;BME280;8646;49.716;9.266;2023-04-07T01:28:24;100296.06;;;8.55;85.09
17060;BME280;8646;49.716;9.266;2023-04-07T01:31:36;100281.41;;;8.37;85.93
17060;BME280;8646;49.716;9.266;2023-04-07T01:34:48;100290.28;;;8.41;86.24
17060;BME280;8646;49.716;9.266;2023-04-07T01:37:52;100293.03;;;8.39;86.07
17060;BME280;8646;49.716;9.266;2023-04-07T01:40:57;100293.88;;;8.41;86.96
17060;BME280;8646;49.716;9.266;2023-04-07T01:44:01;100285.97;;;8.35;87.80
17060;BME280;8646;49.716;9.266;2023-04-07T01:47:06;100273.53;;;8.30;87.05
17060;BME280;8646;49.716;9.266;2023-04-07T01:50:10;100268.31;;;8.25;87.96
17060;BME280;8646;49.716;9.266;2023-04-07T01:53:14;100288.22;;;8.21;88.31
17060;BME280;8646;49.716;9.266;2023-04-07T01:56:18;100281.31;;;8.13;87.91
17060;BME280;8646;49.716;9.266;2023-04-07T01:59:21;100274.91;;;8.17;87.51
17060;BME280;8646;49.716;9.266;2023-04-07T02:02:27;100270.19;;;8.23;88.09
17060;BME280;8646;49.716;9.266;2023-04-07T02:05:31;100266.59;;;8.23;88.15
17060;BME280;8646;49.716;9.266;2023-04-07T02:08:40;100267.56;;;8.20;87.84
17060;BME280;8646;49.716;9.266;2023-04-07T02:11:44;100267.44;;;8.25;87.74
17060;BME280;8646;49.716;9.266;2023-04-07T02:14:47;100253.16;;;8.21;87.29
17060;BME280;8646;49.716;9.266;2023-04-07T02:17:53;100258.28;;;8.29;88.22
17060;BME280;8646;49.716;9.266;2023-04-07T02:20:58;100258.59;;;8.20;88.66
17060;BME280;8646;49.716;9.266;2023-04-07T02:24:04;100254.50;;;8.10;88.54
17060;BME280;8646;49.716;9.266;2023-04-07T02:27:07;100252.19;;;8.24;89.24
17060;BME280;8646;49.716;9.266;2023-04-07T02:30:11;100253.47;;;8.12;89.61
17060;BME280;8646;49.716;9.266;2023-04-07T02:33:16;100250.94;;;8.08;89.45
17060;BME280;8646;49.716;9.266;2023-04-07T02:36:19;100256.25;;;8.11;88.55
17060;BME280;8646;49.716;9.266;2023-04-07T02:39:22;100243.41;;;8.19;88.30
17060;BME280;8646;49.716;9.266;2023-04-07T02:42:25;100237.38;;;8.37;87.97
17060;BME280;8646;49.716;9.266;2023-04-07T02:45:27;100238.50;;;8.30;88.09
17060;BME280;8646;49.716;9.266;2023-04-07T02:48:31;100239.19;;;8.10;88.37
17060;BME280;8646;49.716;9.266;2023-04-07T02:51:34;100239.19;;;8.10;88.40
17060;BME280;8646;49.716;9.266;2023-04-07T02:54:37;100244.69;;;8.07;88.16
17060;BME280;8646;49.716;9.266;2023-04-07T02:57:39;100236.16;;;8.19;87.83
17060;BME280;8646;49.716;9.266;2023-04-07T03:00:42;100240.47;;;8.25;87.74
17060;BME280;8646;49.716;9.266;2023-04-07T03:03:47;100241.41;;;8.24;87.58
17060;BME280;8646;49.716;9.266;2023-04-07T03:06:51;100246.59;;;8.30;88.05
17060;BME280;8646;49.716;9.266;2023-04-07T03:09:54;100245.03;;;8.23;88.26
17060;BME280;8646;49.716;9.266;2023-04-07T03:12:57;100238.75;;;8.22;88.68
17060;BME280;8646;49.716;9.266;2023-04-07T03:16:01;100228.78;;;8.26;89.22
17060;BME280;8646;49.716;9.266;2023-04-07T03:19:05;100212.81;;;7.93;89.66
17060;BME280;8646;49.716;9.266;2023-04-07T03:22:07;100225.16;;;8.00;89.66
17060;BME280;8646;49.716;9.266;2023-04-07T03:25:10;100226.03;;;8.01;90.24
17060;BME280;8646;49.716;9.266;2023-04-07T03:28:13;100230.78;;;7.93;90.13
17060;BME280;8646;49.716;9.266;2023-04-07T03:31:16;100225.22;;;7.97;89.46
17060;BME280;8646;49.716;9.266;2023-04-07T03:34:20;100222.22;;;8.07;88.82
17060;BME280;8646;49.716;9.266;2023-04-07T03:37:23;100219.50;;;8.08;89.26
17060;BME280;8646;49.716;9.266;2023-04-07T03:40:26;100210.47;;;8.09;88.92
17060;BME280;8646;49.716;9.266;2023-04-07T03:43:29;100211.19;;;8.14;88.44
17060;BME280;8646;49.716;9.266;2023-04-07T03:46:31;100214.66;;;8.18;88.17
17060;BME280;8646;49.716;9.266;2023-04-07T03:49:35;100215.34;;;8.24;88.02
17060;BME280;8646;49.716;9.266;2023-04-07T03:52:38;100210.63;;;8.31;88.64
17060;BME280;8646;49.716;9.266;2023-04-07T03:55:42;100215.44;;;8.21;88.37
17060;BME280;8646;49.716;9.266;2023-04-07T03:58:45;100209.16;;;8.21;88.58
17060;BME280;8646;49.716;9.266;2023-04-07T04:01:49;100209.75;;;8.29;88.17
17060;BME280;8646;49.716;9.266;2023-04-07T04:04:53;100213.41;;;8.28;88.68
17060;BME280;8646;49.716;9.266;2023-04-07T04:07:56;100207.25;;;8.24;88.81
17060;BME280;8646;49.716;9.266;2023-04-07T04:10:59;100206.31;;;8.25;88.31
17060;BME280;8646;49.716;9.266;2023-04-07T04:14:02;100201.91;;;8.23;88.64
17060;BME280;8646;49.716;9.266;2023-04-07T04:17:05;100203.75;;;8.21;88.56
17060;BME280;8646;49.716;9.266;2023-04-07T04:20:10;100210.91;;;8.22;88.52
17060;BME280;8646;49.716;9.266;2023-04-07T04:23:13;100204.22;;;8.09;88.61
17060;BME280;8646;49.716;9.266;2023-04-07T04:26:16;100213.13;;;8.11;88.46
17060;BME280;8646;49.716;9.266;2023-04-07T04:29:19;100204.91;;;8.14;88.90
17060;BME280;8646;49.716;9.266;2023-04-07T04:32:22;100202.44;;;8.08;89.58
17060;BME280;8646;49.716;9.266;2023-04-07T04:35:26;100207.13;;;8.02;90.22
17060;BME280;8646;49.716;9.266;2023-04-07T04:38:28;100206.69;;;7.88;90.67
17060;BME280;8646;49.716;9.266;2023-04-07T04:41:33;100205.44;;;7.98;90.74
17060;BME280;8646;49.716;9.266;2023-04-07T04:44:38;100215.50;;;7.93;90.70
17060;BME280;8646;49.716;9.266;2023-04-07T04:47:41;100215.28;;;7.99;90.46
17060;BME280;8646;49.716;9.266;2023-04-07T04:50:46;100220.16;;;7.88;90.38
17060;BME280;8646;49.716;9.266;2023-04-07T04:53:48;100219.72;;;8.02;90.45
17060;BME280;8646;49.716;9.266;2023-04-07T04:56:52;100219.00;;;7.95;90.84
17060;BME280;8646;49.716;9.266;2023-04-07T04:59:54;100217.50;;;8.13;91.14
17060;BME280;8646;49.716;9.266;2023-04-07T05:02:57;100212.94;;;8.15;91.61
17060;BME280;8646;49.716;9.266;2023-04-07T05:06:03;100216.13;;;8.01;92.07
17060;BME280;8646;49.716;9.266;2023-04-07T05:09:07;100219.09;;;7.94;92.53
17060;BME280;8646;49.716;9.266;2023-04-07T05:12:10;100222.59;;;7.96;92.18
17060;BME280;8646;49.716;9.266;2023-04-07T05:15:12;100218.06;;;7.96;92.03
17060;BME280;8646;49.716;9.266;2023-04-07T05:18:16;100215.19;;;8.02;91.95
17060;BME280;8646;49.716;9.266;2023-04-07T05:21:20;100215.00;;;8.09;91.59
17060;BME280;8646;49.716;9.266;2023-04-07T05:24:24;100208.84;;;8.03;91.59
17060;BME280;8646;49.716;9.266;2023-04-07T05:27:27;100206.38;;;7.97;91.79
17060;BME280;8646;49.716;9.266;2023-04-07T05:30:30;100208.03;;;8.01;92.02
17060;BME280;8646;49.716;9.266;2023-04-07T05:33:33;100204.06;;;8.12;91.69
17060;BME280;8646;49.716;9.266;2023-04-07T05:36:38;100204.34;;;8.04;91.47
17060;BME280;8646;49.716;9.266;2023-04-07T05:39:41;100214.25;;;8.03;91.23
17060;BME280;8646;49.716;9.266;2023-04-07T05:42:43;100208.72;;;8.08;90.62
17060;BME280;8646;49.716;9.266;2023-04-07T05:45:46;100203.19;;;8.11;89.83
17060;BME280;8646;49.716;9.266;2023-04-07T05:48:49;100210.31;;;8.14;90.05
17060;BME280;8646;49.716;9.266;2023-04-07T05:51:53;100213.00;;;8.14;90.38
17060;BME280;8646;49.716;9.266;2023-04-07T05:54:57;100203.09;;;8.14;90.48
17060;BME280;8646;49.716;9.266;2023-04-07T05:58:00;100205.03;;;8.11;90.41
17060;BME280;8646;49.716;9.266;2023-04-07T06:01:03;100200.19;;;8.20;89.55
17060;BME280;8646;49.716;9.266;2023-04-07T06:04:06;100204.50;;;8.26;89.11
17060;BME280;8646;49.716;9.266;2023-04-07T06:07:10;100199.91;;;8.28;89.06
17060;BME280;8646;49.716;9.266;2023-04-07T06:10:14;100205.91;;;8.37;89.49
17060;BME280;8646;49.716;9.266;2023-04-07T06:13:17;100213.75;;;8.43;89.31
17060;BME280;8646;49.716;9.266;2023-04-07T06:16:19;100209.53;;;8.36;89.87
17060;BME280;8646;49.716;9.266;2023-04-07T06:19:22;100215.47;;;8.46;90.53
17060;BME280;8646;49.716;9.266;2023-04-07T06:22:27;100213.53;;;8.51;90.30
17060;BME280;8646;49.716;9.266;2023-04-07T06:25:29;100212.19;;;8.63;89.64
17060;BME280;8646;49.716;9.266;2023-04-07T06:28:32;100204.44;;;8.77;89.40
17060;BME280;8646;49.716;9.266;2023-04-07T06:31:35;100192.13;;;8.93;88.69
17060;BME280;8646;49.716;9.266;2023-04-07T06:34:38;100200.25;;;8.93;88.15
17060;BME280;8646;49.716;9.266;2023-04-07T06:37:42;100200.53;;;9.09;86.95
17060;BME280;8646;49.716;9.266;2023-04-07T06:40:45;100206.06;;;9.06;86.74
17060;BME280;8646;49.716;9.266;2023-04-07T06:43:48;100196.16;;;9.06;86.82
17060;BME280;8646;49.716;9.266;2023-04-07T06:46:52;100191.50;;;9.10;86.74
17060;BME280;8646;49.716;9.266;2023-04-07T06:49:56;100201.19;;;9.15;85.93
17060;BME280;8646;49.716;9.266;2023-04-07T06:53:00;100203.91;;;9.15;85.78
17060;BME280;8646;49.716;9.266;2023-04-07T06:56:04;100201.41;;;9.09;86.37
17060;BME280;8646;49.716;9.266;2023-04-07T06:59:07;100205.81;;;9.12;86.67
17060;BME280;8646;49.716;9.266;2023-04-07T07:02:09;100201.94;;;9.19;86.62
17060;BME280;8646;49.716;9.266;2023-04-07T07:05:13;100208.41;;;9.15;86.59
17060;BME280;8646;49.716;9.266;2023-04-07T07:08:17;100216.63;;;9.12;87.13
17060;BME280;8646;49.716;9.266;2023-04-07T07:11:20;100214.63;;;9.17;86.80
17060;BME280;8646;49.716;9.266;2023-04-07T07:14:22;100212.00;;;9.15;87.19
17060;BME280;8646;49.716;9.266;2023-04-07T07:17:25;100213.22;;;9.07;87.14
17060;BME280;8646;49.716;9.266;2023-04-07T07:20:28;100220.16;;;9.14;87.28
17060;BME280;8646;49.716;9.266;2023-04-07T07:23:32;100224.19;;;9.26;87.21
17060;BME280;8646;49.716;9.266;2023-04-07T07:26:35;100213.44;;;9.47;85.66
17060;BME280;8646;49.716;9.266;2023-04-07T07:29:38;100208.59;;;9.55;84.61
17060;BME280;8646;49.716;9.266;2023-04-07T07:32:41;100212.09;;;9.57;83.79
17060;BME280;8646;49.716;9.266;2023-04-07T07:35:44;100213.63;;;9.65;83.91
17060;BME280;8646;49.716;9.266;2023-04-07T07:38:49;100212.00;;;9.61;84.12
17060;BME280;8646;49.716;9.266;2023-04-07T07:41:52;100208.53;;;9.79;84.12
17060;BME280;8646;49.716;9.266;2023-04-07T07:44:56;100217.59;;;9.78;85.01
17060;BME280;8646;49.716;9.266;2023-04-07T07:47:58;100210.41;;;9.99;83.18
17060;BME280;8646;49.716;9.266;2023-04-07T07:51:02;100212.66;;;10.09;82.20
17060;BME280;8646;49.716;9.266;2023-04-07T07:54:06;100207.63;;;10.00;82.44
17060;BME280;8646;49.716;9.266;2023-04-07T07:57:10;100218.19;;;10.06;82.07
17060;BME280;8646;49.716;9.266;2023-04-07T08:00:13;100219.81;;;10.10;82.23
17060;BME280;8646;49.716;9.266;2023-04-07T08:03:16;100219.72;;;10.13;82.09
17060;BME280;8646;49.716;9.266;2023-04-07T08:06:20;100219.19;;;10.25;81.42
17060;BME280;8646;49.716;9.266;2023-04-07T08:09:25;100215.94;;;10.17;81.40
17060;BME280;8646;49.716;9.266;2023-04-07T08:12:28;100217.59;;;10.21;81.86
17060;BME280;8646;49.716;9.266;2023-04-07T08:15:31;100219.94;;;10.07;82.04
17060;BME280;8646;49.716;9.266;2023-04-07T08:18:33;100223.25;;;9.93;82.11
17060;BME280;8646;49.716;9.266;2023-04-07T08:21:36;100225.81;;;9.97;82.91
17060;BME280;8646;49.716;9.266;2023-04-07T08:24:40;100214.69;;;9.82;83.17
17060;BME280;8646;49.716;9.266;2023-04-07T08:27:43;100233.28;;;10.12;82.93
17060;BME280;8646;49.716;9.266;2023-04-07T08:30:46;100238.63;;;10.13;82.72
17060;BME280;8646;49.716;9.266;2023-04-07T08:33:49;100225.28;;;10.30;82.23
17060;BME280;8646;49.716;9.266;2023-04-07T08:36:54;100237.63;;;10.38;82.57
17060;BME280;8646;49.716;9.266;2023-04-07T08:39:58;100234.09;;;10.56;81.59
17060;BME280;8646;49.716;9.266;2023-04-07T08:43:07;100236.75;;;10.57;81.17
17060;BME280;8646;49.716;9.266;2023-04-07T08:46:10;100233.28;;;10.74;80.31
17060;BME280;8646;49.716;9.266;2023-04-07T08:49:14;100233.41;;;10.71;80.14
17060;BME280;8646;49.716;9.266;2023-04-07T08:52:22;100233.94;;;10.79;80.74
17060;BME280;8646;49.716;9.266;2023-04-07T08:55:27;100234.03;;;10.78;80.36
17060;BME280;8646;49.716;9.266;2023-04-07T08:58:30;100237.88;;;10.72;80.44
17060;BME280;8646;49.716;9.266;2023-04-07T09:01:34;100237.09;;;10.70;80.53
17060;BME280;8646;49.716;9.266;2023-04-07T09:04:37;100242.09;;;10.59;80.47
17060;BME280;8646;49.716;9.266;2023-04-07T09:07:40;100242.56;;;10.48;80.42
17060;BME280;8646;49.716;9.266;2023-04-07T09:10:45;100249.19;;;10.41;80.80
17060;BME280;8646;49.716;9.266;2023-04-07T09:13:49;100238.91;;;10.29;81.53
17060;BME280;8646;49.716;9.266;2023-04-07T09:16:53;100247.75;;;10.32;81.66
17060;BME280;8646;49.716;9.266;2023-04-07T09:19:57;100247.34;;;10.21;82.34
17060;BME280;8646;49.716;9.266;2023-04-07T09:23:01;100247.06;;;10.48;81.14
17060;BME280;8646;49.716;9.266;2023-04-07T09:26:20;100246.00;;;10.52;80.99
17060;BME280;8646;49.716;9.266;2023-04-07T09:29:23;100249.81;;;10.68;80.25
17060;BME280;8646;49.716;9.266;2023-04-07T09:32:35;100252.91;;;10.79;79.75
17060;BME280;8646;49.716;9.266;2023-04-07T09:35:50;100247.22;;;10.85;79.93
17060;BME280;8646;49.716;9.266;2023-04-07T09:38:53;100246.53;;;11.00;79.03
17060;BME280;8646;49.716;9.266;2023-04-07T09:41:57;100245.88;;;11.14;78.41
17060;BME280;8646;49.716;9.266;2023-04-07T09:45:01;100243.25;;;11.13;78.86
17060;BME280;8646;49.716;9.266;2023-04-07T09:48:05;100228.19;;;11.26;78.25
17060;BME280;8646;49.716;9.266;2023-04-07T09:51:09;100229.44;;;11.37;77.53
17060;BME280;8646;49.716;9.266;2023-04-07T09:54:13;100227.53;;;11.58;76.69
17060;BME280;8646;49.716;9.266;2023-04-07T09:57:36;100236.63;;;11.57;76.68
17060;BME280;8646;49.716;9.266;2023-04-07T10:00:41;100234.53;;;11.82;76.16
17060;BME280;8646;49.716;9.266;2023-04-07T10:03:45;100232.13;;;11.94;76.46
17060;BME280;8646;49.716;9.266;2023-04-07T10:06:49;100230.31;;;11.94;76.89
17060;BME280;8646;49.716;9.266;2023-04-07T10:09:52;100226.75;;;12.11;77.31
17060;BME280;8646;49.716;9.266;2023-04-07T10:12:56;100223.59;;;12.54;73.28
17060;BME280;8646;49.716;9.266;2023-04-07T10:16:02;100225.56;;;12.34;73.61
17060;BME280;8646;49.716;9.266;2023-04-07T10:19:05;100219.41;;;12.13;74.57
17060;BME280;8646;49.716;9.266;2023-04-07T10:22:08;100221.00;;;12.00;74.40
17060;BME280;8646;49.716;9.266;2023-04-07T10:25:13;100228.91;;;11.85;75.34
17060;BME280;8646;49.716;9.266;2023-04-07T10:28:20;100227.66;;;11.75;76.08
17060;BME280;8646;49.716;9.266;2023-04-07T10:31:25;100239.97;;;11.62;76.88
17060;BME280;8646;49.716;9.266;2023-04-07T10:38:11;100241.41;;;11.90;76.42
17060;BME280;8646;49.716;9.266;2023-04-07T10:41:31;100240.28;;;11.94;75.13
17060;BME280;8646;49.716;9.266;2023-04-07T10:44:46;100241.09;;;11.77;76.32
17060;BME280;8646;49.716;9.266;2023-04-07T10:48:10;100248.22;;;11.79;77.33
17060;BME280;8646;49.716;9.266;2023-04-07T10:51:14;100247.16;;;12.01;76.32
17060;BME280;8646;49.716;9.266;2023-04-07T10:54:19;100241.81;;;12.16;75.89
17060;BME280;8646;49.716;9.266;2023-04-07T10:57:23;100239.22;;;12.49;74.58
17060;BME280;8646;49.716;9.266;2023-04-07T11:00:27;100243.31;;;12.58;73.23
17060;BME280;8646;49.716;9.266;2023-04-07T11:03:31;100231.66;;;12.56;73.41
17060;BME280;8646;49.716;9.266;2023-04-07T11:06:34;100239.97;;;12.70;73.03
17060;BME280;8646;49.716;9.266;2023-04-07T11:09:37;100227.25;;;12.71;73.01
17060;BME280;8646;49.716;9.266;2023-04-07T11:12:40;100226.44;;;12.86;72.24
17060;BME280;8646;49.716;9.266;2023-04-07T11:15:49;100222.69;;;12.88;72.09
17060;BME280;8646;49.716;9.266;2023-04-07T11:18:56;100213.00;;;13.00;72.44
17060;BME280;8646;49.716;9.266;2023-04-07T11:22:15;100209.41;;;13.32;72.00
17060;BME280;8646;49.716;9.266;2023-04-07T11:25:30;100208.91;;;13.42;70.96
17060;BME280;8646;49.716;9.266;2023-04-07T11:28:33;100212.94;;;13.34;71.22
17060;BME280;8646;49.716;9.266;2023-04-07T11:31:37;100201.03;;;13.53;71.39
17060;BME280;8646;49.716;9.266;2023-04-07T11:34:41;100206.38;;;13.70;71.77
17060;BME280;8646;49.716;9.266;2023-04-07T11:37:44;100203.09;;;14.10;69.25
17060;BME280;8646;49.716;9.266;2023-04-07T11:40:47;100203.53;;;14.19;68.42
17060;BME280;8646;49.716;9.266;2023-04-07T11:44:03;100202.09;;;14.11;67.42
17060;BME280;8646;49.716;9.266;2023-04-07T11:47:08;100195.53;;;14.16;67.68
17060;BME280;8646;49.716;9.266;2023-04-07T11:50:11;100201.84;;;14.16;68.80
17060;BME280;8646;49.716;9.266;2023-04-07T11:53:24;100198.84;;;14.21;67.40
17060;BME280;8646;49.716;9.266;2023-04-07T11:56:27;100192.91;;;14.14;67.15
17060;BME280;8646;49.716;9.266;2023-04-07T11:59:30;100199.25;;;13.99;67.57
17060;BME280;8646;49.716;9.266;2023-04-07T12:02:35;100194.84;;;13.96;68.09
17060;BME280;8646;49.716;9.266;2023-04-07T12:05:44;100201.25;;;13.95;69.06
17060;BME280;8646;49.716;9.266;2023-04-07T12:08:47;100188.88;;;14.05;67.54
17060;BME280;8646;49.716;9.266;2023-04-07T12:11:50;100184.59;;;14.01;68.21
17060;BME280;8646;49.716;9.266;2023-04-07T12:14:53;100184.75;;;13.98;68.85
17060;BME280;8646;49.716;9.266;2023-04-07T12:17:57;100186.78;;;14.10;68.68
17060;BME280;8646;49.716;9.266;2023-04-07T12:21:00;100189.16;;;14.31;67.45
17060;BME280;8646;49.716;9.266;2023-04-07T12:24:03;100165.47;;;14.33;66.33
17060;BME280;8646;49.716;9.266;2023-04-07T12:27:06;100181.00;;;14.61;65.15
17060;BME280;8646;49.716;9.266;2023-04-07T12:30:09;100173.16;;;14.70;62.87
17060;BME280;8646;49.716;9.266;2023-04-07T12:33:15;100175.53;;;14.91;62.21
17060;BME280;8646;49.716;9.266;2023-04-07T12:36:17;100162.09;;;15.30;61.37
17060;BME280;8646;49.716;9.266;2023-04-07T12:39:20;100164.78;;;15.58;59.89
17060;BME280;8646;49.716;9.266;2023-04-07T12:42:23;100160.06;;;15.75;59.13
17060;BME280;8646;49.716;9.266;2023-04-07T12:45:26;100157.31;;;15.89;57.35
17060;BME280;8646;49.716;9.266;2023-04-07T12:48:32;100151.97;;;15.73;57.47
17060;BME280;8646;49.716;9.266;2023-04-07T12:51:35;100152.38;;;15.67;58.33
17060;BME280;8646;49.716;9.266;2023-04-07T12:54:40;100157.84;;;15.94;56.73
17060;BME280;8646;49.716;9.266;2023-04-07T12:57:43;100149.13;;;16.28;56.08
17060;BME280;8646;49.716;9.266;2023-04-07T13:00:46;100156.88;;;16.74;54.97
17060;BME280;8646;49.716;9.266;2023-04-07T13:03:50;100149.88;;;17.08;53.03
17060;BME280;8646;49.716;9.266;2023-04-07T13:06:54;100151.69;;;17.20;50.69
17060;BME280;8646;49.716;9.266;2023-04-07T13:09:58;100148.41;;;17.28;49.89
17060;BME280;8646;49.716;9.266;2023-04-07T13:13:01;100158.34;;;17.41;50.09
17060;BME280;8646;49.716;9.266;2023-04-07T13:16:04;100152.56;;;17.33;50.88
17060;BME280;8646;49.716;9.266;2023-04-07T13:19:09;100152.72;;;16.81;51.78
17060;BME280;8646;49.716;9.266;2023-04-07T13:22:12;100159.91;;;16.30;53.46
17060;BME280;8646;49.716;9.266;2023-04-07T13:25:22;100174.03;;;15.70;55.90
17060;BME280;8646;49.716;9.266;2023-04-07T13:28:24;100168.69;;;15.54;56.05
17060;BME280;8646;49.716;9.266;2023-04-07T13:31:28;100147.19;;;15.21;55.56
17060;BME280;8646;49.716;9.266;2023-04-07T13:34:32;100174.53;;;15.20;56.29
17060;BME280;8646;49.716;9.266;2023-04-07T13:37:35;100187.59;;;15.15;56.39
17060;BME280;8646;49.716;9.266;2023-04-07T13:40:38;100165.41;;;15.07;56.53
17060;BME280;8646;49.716;9.266;2023-04-07T13:43:41;100174.56;;;15.06;56.65
17060;BME280;8646;49.716;9.266;2023-04-07T13:46:44;100165.66;;;15.16;56.88
17060;BME280;8646;49.716;9.266;2023-04-07T13:49:49;100175.03;;;15.26;56.70
17060;BME280;8646;49.716;9.266;2023-04-07T13:52:52;100169.84;;;15.36;57.08
17060;BME280;8646;49.716;9.266;2023-04-07T13:55:55;100169.16;;;15.47;57.24
17060;BME280;8646;49.716;9.266;2023-04-07T13:58:58;100171.34;;;15.56;56.80
17060;BME280;8646;49.716;9.266;2023-04-07T14:02:01;100175.09;;;15.68;57.55
17060;BME280;8646;49.716;9.266;2023-04-07T14:05:07;100181.88;;;15.75;58.22
17060;BME280;8646;49.716;9.266;2023-04-07T14:08:10;100174.06;;;15.83;57.83
17060;BME280;8646;49.716;9.266;2023-04-07T14:11:15;100167.34;;;15.88;57.80
17060;BME280;8646;49.716;9.266;2023-04-07T14:14:18;100169.56;;;15.96;57.74
17060;BME280;8646;49.716;9.266;2023-04-07T14:17:21;100165.19;;;16.06;57.29
17060;BME280;8646;49.716;9.266;2023-04-07T14:20:25;100167.75;;;16.09;56.34
17060;BME280;8646;49.716;9.266;2023-04-07T14:23:28;100167.19;;;16.04;56.21
17060;BME280;8646;49.716;9.266;2023-04-07T14:26:38;100171.31;;;15.97;55.87
17060;BME280;8646;49.716;9.266;2023-04-07T14:29:41;100164.72;;;15.87;55.76
17060;BME280;8646;49.716;9.266;2023-04-07T14:32:44;100171.66;;;15.78;54.31
17060;BME280;8646;49.716;9.266;2023-04-07T14:35:48;100175.91;;;15.55;55.01
17060;BME280;8646;49.716;9.266;2023-04-07T14:38:51;100175.28;;;15.50;55.42
17060;BME280;8646;49.716;9.266;2023-04-07T14:41:54;100177.25;;;15.34;54.26
17060;BME280;8646;49.716;9.266;2023-04-07T14:44:59;100190.03;;;15.19;55.14
17060;BME280;8646;49.716;9.266;2023-04-07T14:48:02;100193.72;;;14.90;57.60
17060;BME280;8646;49.716;9.266;2023-04-07T14:51:10;100186.38;;;14.76;59.51
17060;BME280;8646;49.716;9.266;2023-04-07T14:54:14;100187.47;;;14.74;57.99
17060;BME280;8646;49.716;9.266;2023-04-07T14:57:16;100203.88;;;14.58;59.18
17060;BME280;8646;49.716;9.266;2023-04-07T15:00:20;100205.97;;;14.53;61.02
17060;BME280;8646;49.716;9.266;2023-04-07T15:03:23;100211.09;;;14.43;61.44
17060;BME280;8646;49.716;9.266;2023-04-07T15:06:27;100210.09;;;14.14;62.24
17060;BME280;8646;49.716;9.266;2023-04-07T15:09:30;100212.53;;;14.19;60.81
17060;BME280;8646;49.716;9.266;2023-04-07T15:12:33;100216.88;;;14.07;60.96
17060;BME280;8646;49.716;9.266;2023-04-07T15:15:35;100212.81;;;14.14;60.94
17060;BME280;8646;49.716;9.266;2023-04-07T15:18:41;100220.72;;;14.03;61.11
17060;BME280;8646;49.716;9.266;2023-04-07T15:21:46;100221.88;;;14.15;62.92
17060;BME280;8646;49.716;9.266;2023-04-07T15:24:49;100227.50;;;13.96;63.92
17060;BME280;8646;49.716;9.266;2023-04-07T15:27:52;100231.63;;;13.88;65.02
17060;BME280;8646;49.716;9.266;2023-04-07T15:30:54;100239.19;;;13.98;65.92
17060;BME280;8646;49.716;9.266;2023-04-07T15:33:57;100237.06;;;14.03;65.58
17060;BME280;8646;49.716;9.266;2023-04-07T15:37:01;100241.00;;;14.13;65.64
17060;BME280;8646;49.716;9.266;2023-04-07T15:40:06;100238.34;;;14.12;65.76
17060;BME280;8646;49.716;9.266;2023-04-07T15:43:09;100243.25;;;14.21;65.57
17060;BME280;8646;49.716;9.266;2023-04-07T15:46:11;100237.16;;;14.18;65.98
17060;BME280;8646;49.716;9.266;2023-04-07T15:49:14;100246.00;;;14.21;66.11
17060;BME280;8646;49.716;9.266;2023-04-07T15:52:21;100240.53;;;14.21;66.81
17060;BME280;8646;49.716;9.266;2023-04-07T15:55:25;100248.78;;;14.20;67.11
17060;BME280;8646;49.716;9.266;2023-04-07T15:58:30;100227.84;;;14.06;67.39
17060;BME280;8646;49.716;9.266;2023-04-07T16:01:32;100254.19;;;14.05;67.77
17060;BME280;8646;49.716;9.266;2023-04-07T16:04:36;100250.66;;;14.03;68.49
17060;BME280;8646;49.716;9.266;2023-04-07T16:07:40;100260.94;;;13.98;69.17
17060;BME280;8646;49.716;9.266;2023-04-07T16:10:43;100265.44;;;13.84;69.34
17060;BME280;8646;49.716;9.266;2023-04-07T16:13:46;100265.66;;;13.79;69.52
17060;BME280;8646;49.716;9.266;2023-04-07T16:16:49;100265.66;;;13.79;70.89
17060;BME280;8646;49.716;9.266;2023-04-07T16:19:54;100274.44;;;13.68;71.23
17060;BME280;8646;49.716;9.266;2023-04-07T16:22:59;100272.31;;;13.58;71.48
17060;BME280;8646;49.716;9.266;2023-04-07T16:26:02;100272.31;;;13.58;71.63
17060;BME280;8646;49.716;9.266;2023-04-07T16:29:06;100276.00;;;13.57;71.67